createdAt,value
2022-10-18T00:00:06.492Z,102085.31
2022-10-18T00:02:33.243Z,102093.06
2022-10-18T00:04:59.795Z,102088.66
2022-10-18T00:07:26.273Z,102082.78
2022-10-18T00:09:52.811Z,102084.97
2022-10-18T00:12:19.331Z,102077.88
2022-10-18T00:14:50.394Z,102085.56
2022-10-18T00:17:17.021Z,102063.63
2022-10-18T00:19:43.576Z,102081.00
2022-10-18T00:22:10.075Z,102083.53
2022-10-18T00:24:36.564Z,102070.47
2022-10-18T00:27:03.072Z,102072.84
2022-10-18T00:29:29.496Z,102069.25
2022-10-18T00:31:55.982Z,102072.72
2022-10-18T00:34:22.485Z,102072.84
2022-10-18T00:36:48.998Z,102069.00
2022-10-18T00:39:18.031Z,102068.19
2022-10-18T00:41:45.124Z,102061.97
2022-10-18T00:44:11.508Z,102068.78
2022-10-18T00:46:40.519Z,102069.50
2022-10-18T00:49:11.857Z,102072.03
2022-10-18T00:52:16.746Z,102064.13
2022-10-18T00:54:46.187Z,102070.09
2022-10-18T00:57:13.726Z,102056.06
2022-10-18T00:59:41.615Z,102046.16
2022-10-18T01:02:08.716Z,102061.22
2022-10-18T01:04:35.855Z,102030.13
2022-10-18T01:07:25.901Z,102052.38
2022-10-18T01:09:55.345Z,102047.56
2022-10-18T01:12:28.740Z,102039.81
2022-10-18T01:15:28.176Z,102041.59
2022-10-18T01:18:25.902Z,102027.00
2022-10-18T01:21:17.367Z,102045.91
2022-10-18T01:24:20.833Z,102048.41
2022-10-18T01:27:13.867Z,102040.50
2022-10-18T01:30:17.823Z,102048.31
2022-10-18T01:32:48.682Z,102047.34
2022-10-18T01:35:19.956Z,102042.31
2022-10-18T01:37:48.664Z,102037.19
2022-10-18T01:40:19.414Z,102053.69
2022-10-18T01:42:48.306Z,102044.94
2022-10-18T01:45:16.798Z,102039.81
2022-10-18T01:47:45.512Z,102050.19
2022-10-18T01:50:12.223Z,102041.47
2022-10-18T01:52:49.873Z,102025.56
2022-10-18T01:55:17.077Z,102047.81
2022-10-18T01:58:05.598Z,102043.63
2022-10-18T02:00:41.029Z,102052.75
2022-10-18T02:03:24.243Z,102050.94
2022-10-18T02:06:02.127Z,102046.41
2022-10-18T02:08:33.324Z,102046.41
2022-10-18T02:11:04.497Z,102044.72
2022-10-18T02:13:37.517Z,102042.09
2022-10-18T02:16:36.152Z,102036.94
2022-10-18T02:19:26.508Z,102042.81
2022-10-18T02:21:54.987Z,102038.34
2022-10-18T02:24:26.365Z,102042.66
2022-10-18T02:26:52.957Z,102051.31
2022-10-18T02:29:19.558Z,102050.34
2022-10-18T02:31:49.561Z,102044.13
2022-10-18T02:34:27.696Z,102040.63
2022-10-18T02:36:58.033Z,102046.03
2022-10-18T02:39:37.793Z,102058.97
2022-10-18T02:42:09.242Z,102046.03
2022-10-18T02:44:36.884Z,102047.72
2022-10-18T02:47:04.798Z,102047.56
2022-10-18T02:49:31.281Z,102051.91
2022-10-18T02:51:57.712Z,102055.38
2022-10-18T02:54:24.439Z,102052.84
2022-10-18T02:56:51.053Z,102041.97
2022-10-18T02:59:17.580Z,102047.38
2022-10-18T03:01:44.095Z,102050.13
2022-10-18T03:04:10.592Z,102045.91
2022-10-18T03:06:37.123Z,102055.84
2022-10-18T03:09:05.598Z,102056.81
2022-10-18T03:11:32.378Z,102010.34
2022-10-18T03:13:58.827Z,102046.38
2022-10-18T03:16:25.428Z,102044.50
2022-10-18T03:18:51.930Z,102044.59
2022-10-18T03:21:18.554Z,102041.25
2022-10-18T03:23:45.048Z,102043.53
2022-10-18T03:26:11.506Z,102043.38
2022-10-18T03:28:38.016Z,102044.25
2022-10-18T03:31:05.168Z,102038.88
2022-10-18T03:33:32.773Z,102035.38
2022-10-18T03:35:59.246Z,102041.25
2022-10-18T03:38:26.051Z,102040.28
2022-10-18T03:40:52.574Z,102036.81
2022-10-18T03:43:19.064Z,102029.75
2022-10-18T03:45:45.509Z,102036.69
2022-10-18T03:48:11.998Z,102020.78
2022-10-18T03:50:38.528Z,102039.31
2022-10-18T03:53:05.091Z,102041.84
2022-10-18T03:55:31.706Z,102042.81
2022-10-18T03:57:58.316Z,102035.63
2022-10-18T04:00:24.768Z,102038.13
2022-10-18T04:02:53.498Z,102036.47
2022-10-18T04:05:24.013Z,102046.03
2022-10-18T04:07:50.810Z,102040.78
2022-10-18T04:10:18.601Z,102051.31
2022-10-18T04:12:45.108Z,102044.38
2022-10-18T04:15:12.006Z,102041.59
2022-10-18T04:17:38.477Z,102044.22
2022-10-18T04:20:05.384Z,102054.66
2022-10-18T04:22:31.798Z,102057.19
2022-10-18T04:24:58.379Z,102054.53
2022-10-18T04:27:24.975Z,102023.41
2022-10-18T04:29:51.392Z,102057.88
2022-10-18T04:32:17.847Z,102064.81
2022-10-18T04:34:44.287Z,102058.72
2022-10-18T04:37:10.775Z,102062.09
2022-10-18T04:39:37.240Z,102060.41
2022-10-18T04:42:03.697Z,102057.63
2022-10-18T04:44:30.178Z,102056.81
2022-10-18T04:46:56.618Z,102050.69
2022-10-18T04:49:23.106Z,102060.28
2022-10-18T04:51:49.553Z,102064.72
2022-10-18T04:54:16.001Z,102052.72
2022-10-18T04:56:42.421Z,102066.50
2022-10-18T04:59:08.858Z,102061.94
2022-10-18T05:01:35.361Z,102062.91
2022-10-18T05:04:01.837Z,102066.25
2022-10-18T05:06:28.269Z,102061.84
2022-10-18T05:08:54.856Z,102050.94
2022-10-18T05:11:21.280Z,102062.69
2022-10-18T05:13:50.106Z,102063.50
2022-10-18T05:16:17.621Z,102058.22
2022-10-18T05:18:44.143Z,102063.63
2022-10-18T05:21:10.849Z,102071.28
2022-10-18T05:23:37.290Z,102072.25
2022-10-18T05:26:05.577Z,102069.84
2022-10-18T05:28:40.845Z,102067.00
2022-10-18T05:31:09.653Z,102056.22
2022-10-18T05:33:36.193Z,102079.19
2022-10-18T05:36:02.671Z,102081.84
2022-10-18T05:38:30.978Z,102080.97
2022-10-18T05:40:58.538Z,102061.00
2022-10-18T05:43:28.905Z,102064.72
2022-10-18T05:45:55.707Z,102072.63
2022-10-18T05:48:22.283Z,102063.63
2022-10-18T05:50:48.740Z,102053.56
2022-10-18T05:53:35.326Z,102062.81
2022-10-18T05:56:02.815Z,102065.44
2022-10-18T05:58:29.455Z,102067.81
2022-10-18T06:01:01.747Z,102048.53
2022-10-18T06:03:30.506Z,102073.00
2022-10-18T06:06:09.190Z,102078.38
2022-10-18T06:08:36.721Z,102082.66
2022-10-18T06:11:08.133Z,102078.25
2022-10-18T06:13:34.612Z,102086.97
2022-10-18T06:16:01.053Z,102092.25
2022-10-18T06:18:27.515Z,102086.00
2022-10-18T06:20:58.940Z,102088.66
2022-10-18T06:23:27.021Z,102057.66
2022-10-18T06:25:53.808Z,102087.09
2022-10-18T06:28:20.649Z,102094.16
2022-10-18T06:30:47.103Z,102094.16
2022-10-18T06:33:13.572Z,102103.75
2022-10-18T06:35:40.053Z,102107.09
2022-10-18T06:38:06.497Z,102101.72
2022-10-18T06:40:37.846Z,102098.22
2022-10-18T06:43:19.943Z,102110.47
2022-10-18T06:45:47.660Z,102105.31
2022-10-18T06:48:14.206Z,102112.25
2022-10-18T06:50:40.825Z,102116.44
2022-10-18T06:53:08.974Z,102129.63
2022-10-18T06:55:35.957Z,102122.69
2022-10-18T06:58:02.617Z,102123.66
2022-10-18T07:00:29.085Z,102120.53
2022-10-18T07:02:57.235Z,102133.44
2022-10-18T07:05:23.939Z,102142.19
2022-10-18T07:07:54.185Z,102135.97
2022-10-18T07:10:23.412Z,102126.03
2022-10-18T07:12:51.585Z,102142.19
2022-10-18T07:15:22.571Z,102149.25
2022-10-18T07:17:49.409Z,102143.03
2022-10-18T07:20:16.007Z,102142.09
2022-10-18T07:22:42.514Z,102149.84
2022-10-18T07:25:09.239Z,102153.19
2022-10-18T07:27:40.550Z,102154.91
2022-10-18T07:30:09.337Z,102166.16
2022-10-18T07:32:35.912Z,102158.25
2022-10-18T07:35:02.950Z,102168.66
2022-10-18T07:37:30.424Z,102128.53
2022-10-18T07:39:56.927Z,102162.19
2022-10-18T07:42:23.438Z,102175.28
2022-10-18T07:44:49.881Z,102184.00
2022-10-18T07:47:16.323Z,102191.09
2022-10-18T07:49:42.761Z,102191.78
2022-10-18T07:52:09.353Z,102190.13
2022-10-18T07:54:35.872Z,102202.09
2022-10-18T07:57:04.377Z,102192.25
2022-10-18T07:59:30.878Z,102199.25
2022-10-18T08:01:57.363Z,102199.09
2022-10-18T08:04:23.833Z,102197.16
2022-10-18T08:06:50.251Z,102204.97
2022-10-18T08:09:16.715Z,102202.34
2022-10-18T08:11:43.237Z,102204.72
2022-10-18T08:14:09.631Z,102208.84
2022-10-18T08:16:36.099Z,102212.09
2022-10-18T08:19:02.654Z,102223.34
2022-10-18T08:21:29.117Z,102215.19
2022-10-18T08:23:55.636Z,102228.16
2022-10-18T08:26:23.375Z,102229.72
2022-10-18T08:28:54.365Z,102233.28
2022-10-18T08:31:30.967Z,102227.63
2022-10-18T08:33:57.597Z,102226.56
2022-10-18T08:36:24.638Z,102231.97
2022-10-18T08:38:51.211Z,102215.78
2022-10-18T08:41:23.542Z,102241.06
2022-10-18T08:44:07.434Z,102230.41
2022-10-18T08:46:36.647Z,102239.75
2022-10-18T08:49:05.556Z,102237.84
2022-10-18T08:51:48.623Z,102238.44
2022-10-18T08:54:25.702Z,102247.06
2022-10-18T08:57:01.262Z,102233.28
2022-10-18T08:59:37.816Z,102239.75
2022-10-18T09:02:10.917Z,102233.63
2022-10-18T09:05:00.365Z,102240.81
2022-10-18T09:07:26.724Z,102248.38
2022-10-18T09:10:00.061Z,102246.22
2022-10-18T09:12:42.792Z,102250.97
2022-10-18T09:15:15.215Z,102254.81
2022-10-18T09:18:03.337Z,102263.22
2022-10-18T09:20:53.035Z,102251.44
2022-10-18T09:23:29.177Z,102254.78
2022-10-18T09:26:15.220Z,102261.03
2022-10-18T09:29:26.115Z,102260.78
2022-10-18T09:31:56.090Z,102265.22
2022-10-18T09:34:37.341Z,102267.88
2022-10-18T09:37:04.859Z,102266.06
2022-10-18T09:39:37.784Z,102269.53
2022-10-18T09:42:13.309Z,102279.00
2022-10-18T09:44:43.988Z,102289.56
2022-10-18T09:47:17.001Z,102274.22
2022-10-18T09:49:50.919Z,102284.66
2022-10-18T09:52:25.266Z,102284.56
2022-10-18T09:54:57.237Z,102280.25
2022-10-18T09:57:34.198Z,102292.47
2022-10-18T10:00:03.415Z,102286.44
2022-10-18T10:02:29.904Z,102291.72
2022-10-18T10:04:56.991Z,102286.72
2022-10-18T10:07:36.119Z,102286.13
2022-10-18T10:10:17.583Z,102297.53
2022-10-18T10:12:44.355Z,102291.66
2022-10-18T10:15:17.344Z,102312.78
2022-10-18T10:17:44.131Z,102290.22
2022-10-18T10:20:23.476Z,102305.44
2022-10-18T10:22:51.995Z,102300.16
2022-10-18T10:25:36.135Z,102296.81
2022-10-18T10:28:13.025Z,102308.59
2022-10-18T10:30:39.628Z,102317.56
2022-10-18T10:33:07.035Z,102319.13
2022-10-18T10:35:53.128Z,102326.31
2022-10-18T10:38:25.535Z,102330.75
2022-10-18T10:40:53.182Z,102317.78
2022-10-18T10:43:37.682Z,102320.56
2022-10-18T10:46:19.205Z,102307.97
2022-10-18T10:49:04.467Z,102311.44
2022-10-18T10:51:41.137Z,102301.25
2022-10-18T10:54:20.434Z,102320.94
2022-10-18T10:57:19.377Z,102307.84
2022-10-18T10:59:51.418Z,102315.03
2022-10-18T11:02:32.270Z,102315.66
2022-10-18T11:05:25.525Z,102327.28
2022-10-18T11:07:56.450Z,102315.28
2022-10-18T11:10:28.183Z,102320.06
2022-10-18T11:13:23.601Z,102307.72
2022-10-18T11:15:59.323Z,102315.88
2022-10-18T11:18:31.367Z,102316.50
2022-10-18T11:21:15.889Z,102322.38
2022-10-18T11:23:43.436Z,102325.59
2022-10-18T11:26:12.593Z,102330.38
2022-10-18T11:29:11.728Z,102322.69
2022-10-18T11:31:40.734Z,102313.09
2022-10-18T11:34:30.958Z,102318.38
2022-10-18T11:37:32.125Z,102318.13
2022-10-18T11:40:17.797Z,102314.50
2022-10-18T11:43:20.889Z,102305.56
2022-10-18T11:45:59.523Z,102308.00
2022-10-18T11:48:32.091Z,102302.59
2022-10-18T11:51:08.708Z,102301.66
2022-10-18T11:54:02.286Z,102296.69
2022-10-18T11:56:42.779Z,102299.75
2022-10-18T11:59:21.129Z,102300.38
2022-10-18T12:02:11.484Z,102302.44
2022-10-18T12:04:53.198Z,102292.75
2022-10-18T12:07:36.271Z,102297.09
2022-10-18T12:10:06.259Z,102291.84
2022-10-18T12:12:37.797Z,102294.00
2022-10-18T12:15:18.338Z,102277.50
2022-10-18T12:17:50.251Z,102290.06
2022-10-18T12:20:16.725Z,102291.81
2022-10-18T12:22:50.028Z,102283.94
2022-10-18T12:25:19.036Z,102283.41
2022-10-18T12:27:57.990Z,102278.78
2022-10-18T12:30:34.346Z,102278.56
2022-10-18T12:33:27.364Z,102290.88
2022-10-18T12:36:22.155Z,102269.19
2022-10-18T12:39:03.137Z,102271.59
2022-10-18T12:41:32.395Z,102278.13
2022-10-18T12:44:17.794Z,102281.31
2022-10-18T12:46:45.841Z,102277.88
2022-10-18T12:49:14.392Z,102276.81
2022-10-18T12:52:02.029Z,102282.03
2022-10-18T12:54:30.095Z,102288.06
2022-10-18T12:56:58.066Z,102287.41
2022-10-18T12:59:27.460Z,102285.59
2022-10-18T13:01:53.915Z,102278.88
2022-10-18T13:04:29.527Z,102275.50
2022-10-18T13:06:59.554Z,102276.88
2022-10-18T13:09:35.515Z,102292.41
2022-10-18T13:12:02.175Z,102287.81
2022-10-18T13:14:59.150Z,102282.09
2022-10-18T13:17:56.000Z,102291.19
2022-10-18T13:20:37.474Z,102287.00
2022-10-18T13:23:06.671Z,102288.94
2022-10-18T13:26:18.801Z,102283.59
2022-10-18T13:29:13.353Z,102284.31
2022-10-18T13:31:48.612Z,102291.00
2022-10-18T13:34:24.303Z,102281.91
2022-10-18T13:37:18.680Z,102271.81
2022-10-18T13:39:45.496Z,102266.06
2022-10-18T13:42:14.767Z,102275.56
2022-10-18T13:44:44.516Z,102264.09
2022-10-18T13:47:12.877Z,102281.31
2022-10-18T13:49:39.247Z,102278.94
2022-10-18T13:52:47.363Z,102279.25
2022-10-18T13:55:41.275Z,102290.66
2022-10-18T13:58:41.072Z,102284.47
2022-10-18T14:01:35.653Z,102283.84
2022-10-18T14:04:27.600Z,102278.44
2022-10-18T14:07:02.220Z,102291.25
2022-10-18T14:09:44.546Z,102289.72
2022-10-18T14:12:16.775Z,102292.94
2022-10-18T14:14:50.173Z,102286.53
2022-10-18T14:17:33.955Z,102291.13
2022-10-18T14:20:14.863Z,102277.66
2022-10-18T14:22:48.134Z,102288.38
2022-10-18T14:25:28.237Z,102285.28
2022-10-18T14:28:17.571Z,102285.41
2022-10-18T14:31:02.098Z,102285.22
2022-10-18T14:33:31.792Z,102287.13
2022-10-18T14:36:14.539Z,102280.22
2022-10-18T14:39:03.308Z,102282.06
2022-10-18T14:41:40.951Z,102280.59
2022-10-18T14:44:16.640Z,102294.34
2022-10-18T14:46:43.925Z,102287.44
2022-10-18T14:49:11.961Z,102294.22
2022-10-18T14:51:40.739Z,102285.53
2022-10-18T14:56:42.698Z,102290.09
2022-10-18T14:59:25.807Z,102290.94
2022-10-18T15:02:15.243Z,102292.97
2022-10-18T15:04:44.891Z,102299.22
2022-10-18T15:07:17.308Z,102272.72
2022-10-18T15:09:44.756Z,102286.59
2022-10-18T15:12:14.900Z,102284.59
2022-10-18T15:14:42.344Z,102290.97
2022-10-18T15:17:16.697Z,102285.00
2022-10-18T15:19:58.494Z,102291.22
2022-10-18T15:22:32.991Z,102297.66
2022-10-18T15:25:05.714Z,102294.75
2022-10-18T15:27:36.918Z,102300.09
2022-10-18T15:30:19.654Z,102293.41
2022-10-18T15:32:50.388Z,102302.34
2022-10-18T15:35:25.750Z,102298.66
2022-10-18T15:37:53.482Z,102303.97
2022-10-18T15:40:22.667Z,102295.28
2022-10-18T15:42:54.682Z,102295.53
2022-10-18T15:45:33.325Z,102294.34
2022-10-18T15:48:05.959Z,102292.50
2022-10-18T15:50:47.500Z,102286.09
2022-10-18T15:53:35.345Z,102294.97
2022-10-18T15:56:34.291Z,102294.88
2022-10-18T15:59:06.474Z,102275.56
2022-10-18T16:01:38.163Z,102287.81
2022-10-18T16:04:12.089Z,102297.94
2022-10-18T16:06:38.680Z,102290.94
2022-10-18T16:09:05.695Z,102279.19
2022-10-18T16:11:32.350Z,102291.94
2022-10-18T16:14:00.428Z,102288.13
2022-10-18T16:16:28.906Z,102287.34
2022-10-18T16:18:55.973Z,102292.31
2022-10-18T16:21:34.038Z,102286.22
2022-10-18T16:24:00.771Z,102296.25
2022-10-18T16:26:28.001Z,102298.44
2022-10-18T16:28:55.608Z,102302.88
2022-10-18T16:31:27.816Z,102298.59
2022-10-18T16:33:55.686Z,102303.16
2022-10-18T16:36:29.031Z,102297.78
2022-10-18T16:38:56.689Z,102306.28
2022-10-18T16:41:23.579Z,102304.59
2022-10-18T16:43:51.056Z,102309.75
2022-10-18T16:46:18.940Z,102279.47
2022-10-18T16:48:46.605Z,102314.25
2022-10-18T16:51:14.459Z,102309.88
2022-10-18T16:53:41.037Z,102313.47
2022-10-18T16:56:14.601Z,102327.31
2022-10-18T16:58:41.477Z,102318.63
2022-10-18T17:01:11.856Z,102318.97
2022-10-18T17:03:39.876Z,102325.53
2022-10-18T17:06:06.940Z,102323.50
2022-10-18T17:08:33.527Z,102344.16
2022-10-18T17:11:01.606Z,102338.28
2022-10-18T17:13:28.053Z,102352.13
2022-10-18T17:15:54.696Z,102329.69
2022-10-18T17:18:26.241Z,102334.44
2022-10-18T17:20:53.065Z,102335.59
2022-10-18T17:23:19.935Z,102342.03
2022-10-18T17:25:57.826Z,102342.44
2022-10-18T17:28:32.937Z,102347.81
2022-10-18T17:30:59.522Z,102350.75
2022-10-18T17:33:25.956Z,102363.81
2022-10-18T17:35:52.400Z,102356.63
2022-10-18T17:38:18.828Z,102353.09
2022-10-18T17:40:45.287Z,102359.38
2022-10-18T17:43:13.591Z,102354.13
2022-10-18T17:45:53.643Z,102356.00
2022-10-18T17:48:20.622Z,102356.63
2022-10-18T17:50:47.079Z,102365.00
2022-10-18T17:53:13.830Z,102360.28
2022-10-18T17:55:40.659Z,102367.31
2022-10-18T18:00:33.763Z,102362.88
2022-10-18T18:03:01.057Z,102358.66
2022-10-18T18:05:32.188Z,102368.50
2022-10-18T18:08:02.966Z,102374.38
2022-10-18T18:10:33.103Z,102366.75
2022-10-18T18:12:59.633Z,102370.41
2022-10-18T18:15:26.116Z,102368.38
2022-10-18T18:17:56.973Z,102365.09
2022-10-18T18:20:24.712Z,102358.97
2022-10-18T18:22:51.522Z,102376.94
2022-10-18T18:25:18.031Z,102366.28
2022-10-18T18:27:44.549Z,102378.16
2022-10-18T18:30:11.632Z,102376.69
2022-10-18T18:32:38.123Z,102378.75
2022-10-18T18:35:04.998Z,102376.53
2022-10-18T18:37:31.424Z,102374.28
2022-10-18T18:39:57.863Z,102366.97
2022-10-18T18:42:24.348Z,102372.41
2022-10-18T18:44:50.742Z,102364.94
2022-10-18T18:47:19.498Z,102368.66
2022-10-18T18:49:45.970Z,102370.63
2022-10-18T18:52:12.383Z,102375.22
2022-10-18T18:54:38.790Z,102377.66
2022-10-18T18:57:06.380Z,102370.91
2022-10-18T18:59:32.844Z,102365.94
2022-10-18T19:01:59.423Z,102369.72
2022-10-18T19:04:26.286Z,102320.06
2022-10-18T19:06:52.845Z,102362.69
2022-10-18T19:09:21.817Z,102367.25
2022-10-18T19:11:52.943Z,102370.03
2022-10-18T19:16:53.514Z,102367.88
2022-10-18T19:19:25.593Z,102353.94
2022-10-18T19:21:56.399Z,102372.94
2022-10-18T19:24:24.873Z,102372.34
2022-10-18T19:26:57.083Z,102369.06
2022-10-18T19:29:25.061Z,102362.56
2022-10-18T19:31:54.161Z,102367.81
2022-10-18T19:34:22.793Z,102360.81
2022-10-18T19:36:50.550Z,102376.47
2022-10-18T19:39:18.420Z,102372.16
2022-10-18T19:41:46.456Z,102380.09
2022-10-18T19:44:13.103Z,102374.09
2022-10-18T19:46:39.532Z,102374.78
2022-10-18T19:49:05.990Z,102372.31
2022-10-18T19:51:32.509Z,102375.78
2022-10-18T19:53:59.043Z,102353.09
2022-10-18T19:56:27.181Z,102376.63
2022-10-18T19:58:54.034Z,102371.56
2022-10-18T20:01:20.829Z,102355.91
2022-10-18T20:03:48.068Z,102380.81
2022-10-18T20:06:15.355Z,102382.66
2022-10-18T20:11:16.557Z,102372.81
2022-10-18T20:13:43.685Z,102384.34
2022-10-18T20:16:11.967Z,102368.16
2022-10-18T20:18:38.662Z,102372.72
2022-10-18T20:21:07.623Z,102380.06
2022-10-18T20:23:38.826Z,102375.09
2022-10-18T20:26:19.792Z,102387.50
2022-10-18T20:28:48.943Z,102388.44
2022-10-18T20:31:19.594Z,102385.13
2022-10-18T20:33:46.674Z,102391.31
2022-10-18T20:36:15.746Z,102350.41
2022-10-18T20:38:44.153Z,102389.00
2022-10-18T20:41:22.370Z,102395.44
2022-10-18T20:43:52.666Z,102393.75
2022-10-18T20:46:20.021Z,102390.34
2022-10-18T20:48:46.466Z,102387.91
2022-10-18T20:51:13.111Z,102390.75
2022-10-18T20:53:39.671Z,102383.91
2022-10-18T20:56:12.062Z,102374.94
2022-10-18T20:58:40.753Z,102383.66
2022-10-18T21:01:27.889Z,102386.56
2022-10-18T21:03:56.471Z,102344.34
2022-10-18T21:06:31.601Z,102363.03
2022-10-18T21:09:00.412Z,102376.91
2022-10-18T21:11:28.838Z,102376.16
2022-10-18T21:13:59.521Z,102375.56
2022-10-18T21:16:26.715Z,102379.13
2022-10-18T21:18:53.620Z,102373.19
2022-10-18T21:21:25.164Z,102378.56
2022-10-18T21:23:52.331Z,102342.22
2022-10-18T21:26:26.317Z,102377.00
2022-10-18T21:28:58.648Z,102338.22
2022-10-18T21:31:28.085Z,102366.69
2022-10-18T21:34:04.029Z,102375.41
2022-10-18T21:36:33.575Z,102371.09
2022-10-18T21:39:00.107Z,102373.78
2022-10-18T21:41:26.703Z,102374.63
2022-10-18T21:43:54.925Z,102373.66
2022-10-18T21:46:23.412Z,102377.09
2022-10-18T21:48:52.410Z,102376.16
2022-10-18T21:51:20.679Z,102369.41
2022-10-18T21:53:49.250Z,102376.31
2022-10-18T21:56:17.578Z,102378.00
2022-10-18T21:58:44.650Z,102378.09
2022-10-18T22:01:16.668Z,102378.00
2022-10-18T22:03:44.233Z,102381.47
2022-10-18T22:06:14.610Z,102384.09
2022-10-18T22:08:42.520Z,102353.53
2022-10-18T22:11:09.030Z,102376.63
2022-10-18T22:13:35.591Z,102357.53
2022-10-18T22:16:04.384Z,102371.56
2022-10-18T22:18:31.809Z,102366.41
2022-10-18T22:21:05.485Z,102365.72
2022-10-18T22:23:40.771Z,102355.13
2022-10-18T22:26:08.614Z,102361.13
2022-10-18T22:28:36.156Z,102360.50
2022-10-18T22:31:02.646Z,102355.59
2022-10-18T22:33:29.434Z,102361.72
2022-10-18T22:35:55.973Z,102358.44
2022-10-18T22:38:22.691Z,102354.81
2022-10-18T22:40:49.245Z,102352.19
2022-10-18T22:43:15.731Z,102355.81
2022-10-18T22:45:42.261Z,102357.75
2022-10-18T22:48:08.730Z,102350.47
2022-10-18T22:50:35.201Z,102350.56
2022-10-18T22:53:01.622Z,102346.56
2022-10-18T22:55:28.062Z,102355.38
2022-10-18T22:57:55.636Z,102329.94
2022-10-18T23:00:22.156Z,102346.91
2022-10-18T23:02:49.810Z,102340.94
2022-10-18T23:05:16.831Z,102348.06
2022-10-18T23:07:47.754Z,102356.09
2022-10-18T23:10:14.364Z,102359.69
2022-10-18T23:12:40.802Z,102350.28
2022-10-18T23:15:07.918Z,102360.00
2022-10-18T23:17:34.599Z,102348.00
2022-10-18T23:20:01.228Z,102350.72
2022-10-18T23:22:27.726Z,102358.66
2022-10-18T23:24:54.172Z,102355.34
2022-10-18T23:27:20.589Z,102355.50
2022-10-18T23:29:47.017Z,102354.78
2022-10-18T23:32:13.427Z,102356.75
2022-10-18T23:34:39.840Z,102358.59
2022-10-18T23:37:06.242Z,102355.25
2022-10-18T23:39:32.661Z,102361.53
2022-10-18T23:41:59.095Z,102353.94
2022-10-18T23:44:25.530Z,102360.28
2022-10-18T23:46:51.915Z,102356.97
2022-10-18T23:49:18.336Z,102342.72
2022-10-18T23:51:44.803Z,102353.06
2022-10-18T23:54:11.240Z,102359.16
2022-10-18T23:56:37.691Z,102342.38
2022-10-18T23:59:04.086Z,102357.78
